sensor_id;sensor_type;location;lat;lon;timestamp;P1;durP1;ratioP1;P2;durP2;ratioP2
29430;SDS011;16404;49.902;10.074;2023-01-08T00:00:33;20.17;;;12.57;;
29430;SDS011;16404;49.902;10.074;2023-01-08T00:03:17;20.23;;;13.10;;
29430;SDS011;16404;49.902;10.074;2023-01-08T00:06:06;19.92;;;13.00;;
29430;SDS011;16404;49.902;10.074;2023-01-08T00:08:52;18.73;;;12.88;;
29430;SDS011;16404;49.902;10.074;2023-01-08T00:11:37;21.15;;;12.98;;
29430;SDS011;16404;49.902;10.074;2023-01-08T00:14:21;16.90;;;12.18;;
29430;SDS011;16404;49.902;10.074;2023-01-08T00:17:06;21.95;;;12.65;;
29430;SDS011;16404;49.902;10.074;2023-01-08T00:22:35;16.30;;;11.32;;
29430;SDS011;16404;49.902;10.074;2023-01-08T00:25:20;16.65;;;11.15;;
29430;SDS011;16404;49.902;10.074;2023-01-08T00:28:04;18.40;;;11.65;;
29430;SDS011;16404;49.902;10.074;2023-01-08T00:30:49;19.45;;;12.30;;
29430;SDS011;16404;49.902;10.074;2023-01-08T00:33:33;18.90;;;11.85;;
29430;SDS011;16404;49.902;10.074;2023-01-08T00:36:19;21.95;;;12.32;;
29430;SDS011;16404;49.902;10.074;2023-01-08T00:39:03;20.73;;;12.77;;
29430;SDS011;16404;49.902;10.074;2023-01-08T00:41:48;18.77;;;12.50;;
29430;SDS011;16404;49.902;10.074;2023-01-08T00:44:32;21.80;;;12.50;;
29430;SDS011;16404;49.902;10.074;2023-01-08T00:47:17;19.05;;;12.23;;
29430;SDS011;16404;49.902;10.074;2023-01-08T00:50:02;18.05;;;11.65;;
29430;SDS011;16404;49.902;10.074;2023-01-08T00:52:46;18.20;;;11.35;;
29430;SDS011;16404;49.902;10.074;2023-01-08T00:55:31;18.73;;;11.70;;
29430;SDS011;16404;49.902;10.074;2023-01-08T00:58:16;17.10;;;11.40;;
29430;SDS011;16404;49.902;10.074;2023-01-08T01:01:00;15.65;;;10.70;;
29430;SDS011;16404;49.902;10.074;2023-01-08T01:03:51;18.40;;;11.70;;
29430;SDS011;16404;49.902;10.074;2023-01-08T01:06:36;19.27;;;12.13;;
29430;SDS011;16404;49.902;10.074;2023-01-08T01:09:20;18.67;;;11.80;;
29430;SDS011;16404;49.902;10.074;2023-01-08T01:12:05;20.77;;;12.25;;
29430;SDS011;16404;49.902;10.074;2023-01-08T01:14:50;15.55;;;11.88;;
29430;SDS011;16404;49.902;10.074;2023-01-08T01:17:36;19.73;;;12.02;;
29430;SDS011;16404;49.902;10.074;2023-01-08T01:20:21;14.82;;;10.68;;
29430;SDS011;16404;49.902;10.074;2023-01-08T01:23:06;17.55;;;11.75;;
29430;SDS011;16404;49.902;10.074;2023-01-08T01:25:51;19.05;;;11.15;;
29430;SDS011;16404;49.902;10.074;2023-01-08T01:28:37;16.98;;;11.77;;
29430;SDS011;16404;49.902;10.074;2023-01-08T01:31:22;19.52;;;11.95;;
29430;SDS011;16404;49.902;10.074;2023-01-08T01:34:08;16.30;;;10.82;;
29430;SDS011;16404;49.902;10.074;2023-01-08T01:36:53;16.67;;;10.80;;
29430;SDS011;16404;49.902;10.074;2023-01-08T01:39:38;19.80;;;10.82;;
29430;SDS011;16404;49.902;10.074;2023-01-08T01:42:23;13.93;;;10.63;;
29430;SDS011;16404;49.902;10.074;2023-01-08T01:45:24;17.38;;;11.52;;
29430;SDS011;16404;49.902;10.074;2023-01-08T01:48:13;18.58;;;11.45;;
29430;SDS011;16404;49.902;10.074;2023-01-08T01:50:59;18.00;;;10.75;;
29430;SDS011;16404;49.902;10.074;2023-01-08T01:53:44;18.60;;;10.73;;
29430;SDS011;16404;49.902;10.074;2023-01-08T01:56:29;19.33;;;11.48;;
29430;SDS011;16404;49.902;10.074;2023-01-08T01:59:15;17.90;;;10.85;;
29430;SDS011;16404;49.902;10.074;2023-01-08T02:02:00;16.67;;;11.80;;
29430;SDS011;16404;49.902;10.074;2023-01-08T02:04:44;19.48;;;12.05;;
29430;SDS011;16404;49.902;10.074;2023-01-08T02:07:40;16.20;;;11.38;;
29430;SDS011;16404;49.902;10.074;2023-01-08T02:10:46;17.58;;;11.45;;
29430;SDS011;16404;49.902;10.074;2023-01-08T02:13:37;17.02;;;11.40;;
29430;SDS011;16404;49.902;10.074;2023-01-08T02:16:25;15.77;;;10.20;;
29430;SDS011;16404;49.902;10.074;2023-01-08T02:19:43;13.90;;;10.07;;
29430;SDS011;16404;49.902;10.074;2023-01-08T02:26:23;17.45;;;10.80;;
29430;SDS011;16404;49.902;10.074;2023-01-08T02:29:09;16.17;;;10.70;;
29430;SDS011;16404;49.902;10.074;2023-01-08T02:31:59;15.52;;;9.40;;
29430;SDS011;16404;49.902;10.074;2023-01-08T02:34:44;15.43;;;10.05;;
29430;SDS011;16404;49.902;10.074;2023-01-08T02:37:29;15.48;;;10.20;;
29430;SDS011;16404;49.902;10.074;2023-01-08T02:40:17;18.98;;;11.25;;
29430;SDS011;16404;49.902;10.074;2023-01-08T02:43:51;14.02;;;10.27;;
29430;SDS011;16404;49.902;10.074;2023-01-08T02:46:18;15.93;;;11.05;;
29430;SDS011;16404;49.902;10.074;2023-01-08T02:49:09;14.32;;;10.30;;
29430;SDS011;16404;49.902;10.074;2023-01-08T02:51:55;19.45;;;10.77;;
29430;SDS011;16404;49.902;10.074;2023-01-08T02:54:43;18.00;;;10.35;;
29430;SDS011;16404;49.902;10.074;2023-01-08T02:57:30;15.65;;;10.57;;
29430;SDS011;16404;49.902;10.074;2023-01-08T03:00:16;15.73;;;10.65;;
29430;SDS011;16404;49.902;10.074;2023-01-08T03:03:11;18.10;;;10.80;;
29430;SDS011;16404;49.902;10.074;2023-01-08T03:06:01;18.60;;;10.43;;
29430;SDS011;16404;49.902;10.074;2023-01-08T03:08:49;17.98;;;10.70;;
29430;SDS011;16404;49.902;10.074;2023-01-08T03:11:38;18.75;;;11.00;;
29430;SDS011;16404;49.902;10.074;2023-01-08T03:14:46;13.98;;;9.90;;
29430;SDS011;16404;49.902;10.074;2023-01-08T03:17:42;18.08;;;10.80;;
29430;SDS011;16404;49.902;10.074;2023-01-08T03:20:30;16.05;;;10.18;;
29430;SDS011;16404;49.902;10.074;2023-01-08T03:23:18;16.05;;;10.80;;
29430;SDS011;16404;49.902;10.074;2023-01-08T03:26:05;14.48;;;10.20;;
29430;SDS011;16404;49.902;10.074;2023-01-08T03:28:51;16.65;;;10.18;;
29430;SDS011;16404;49.902;10.074;2023-01-08T03:31:37;16.05;;;10.10;;
29430;SDS011;16404;49.902;10.074;2023-01-08T03:34:23;13.55;;;9.43;;
29430;SDS011;16404;49.902;10.074;2023-01-08T03:37:10;15.98;;;9.77;;
29430;SDS011;16404;49.902;10.074;2023-01-08T03:42:46;14.13;;;9.48;;
29430;SDS011;16404;49.902;10.074;2023-01-08T03:45:31;16.73;;;9.40;;
29430;SDS011;16404;49.902;10.074;2023-01-08T03:48:17;14.30;;;9.82;;
29430;SDS011;16404;49.902;10.074;2023-01-08T03:51:06;12.50;;;8.63;;
29430;SDS011;16404;49.902;10.074;2023-01-08T03:53:53;13.80;;;8.93;;
29430;SDS011;16404;49.902;10.074;2023-01-08T03:56:41;14.02;;;9.07;;
29430;SDS011;16404;49.902;10.074;2023-01-08T03:59:26;13.23;;;8.80;;
29430;SDS011;16404;49.902;10.074;2023-01-08T04:02:11;13.75;;;9.35;;
29430;SDS011;16404;49.902;10.074;2023-01-08T04:04:55;12.90;;;8.55;;
29430;SDS011;16404;49.902;10.074;2023-01-08T04:07:40;12.27;;;8.80;;
29430;SDS011;16404;49.902;10.074;2023-01-08T04:10:25;13.00;;;8.52;;
29430;SDS011;16404;49.902;10.074;2023-01-08T04:13:09;12.77;;;8.25;;
29430;SDS011;16404;49.902;10.074;2023-01-08T04:15:54;12.15;;;8.50;;
29430;SDS011;16404;49.902;10.074;2023-01-08T04:18:38;12.15;;;8.38;;
29430;SDS011;16404;49.902;10.074;2023-01-08T04:21:23;16.17;;;8.68;;
29430;SDS011;16404;49.902;10.074;2023-01-08T04:24:07;12.32;;;8.23;;
29430;SDS011;16404;49.902;10.074;2023-01-08T04:26:53;14.13;;;7.72;;
29430;SDS011;16404;49.902;10.074;2023-01-08T04:29:38;11.80;;;7.75;;
29430;SDS011;16404;49.902;10.074;2023-01-08T04:32:23;19.08;;;9.00;;
29430;SDS011;16404;49.902;10.074;2023-01-08T04:35:07;12.20;;;8.00;;
29430;SDS011;16404;49.902;10.074;2023-01-08T04:37:52;11.48;;;7.93;;
29430;SDS011;16404;49.902;10.074;2023-01-08T04:40:37;11.40;;;8.25;;
29430;SDS011;16404;49.902;10.074;2023-01-08T04:43:21;12.52;;;8.70;;
29430;SDS011;16404;49.902;10.074;2023-01-08T04:46:06;13.00;;;8.68;;
29430;SDS011;16404;49.902;10.074;2023-01-08T04:48:50;11.32;;;7.85;;
29430;SDS011;16404;49.902;10.074;2023-01-08T04:51:35;14.73;;;8.15;;
29430;SDS011;16404;49.902;10.074;2023-01-08T04:54:20;12.63;;;8.35;;
29430;SDS011;16404;49.902;10.074;2023-01-08T04:57:04;10.43;;;7.80;;
29430;SDS011;16404;49.902;10.074;2023-01-08T04:59:49;11.40;;;8.65;;
29430;SDS011;16404;49.902;10.074;2023-01-08T05:02:34;11.43;;;7.57;;
29430;SDS011;16404;49.902;10.074;2023-01-08T05:05:18;12.13;;;8.05;;
29430;SDS011;16404;49.902;10.074;2023-01-08T05:08:03;13.75;;;9.10;;
29430;SDS011;16404;49.902;10.074;2023-01-08T05:10:47;13.02;;;8.32;;
29430;SDS011;16404;49.902;10.074;2023-01-08T05:13:32;11.73;;;8.20;;
29430;SDS011;16404;49.902;10.074;2023-01-08T05:16:17;14.40;;;9.35;;
29430;SDS011;16404;49.902;10.074;2023-01-08T05:19:01;13.85;;;10.40;;
29430;SDS011;16404;49.902;10.074;2023-01-08T05:21:46;13.20;;;9.70;;
29430;SDS011;16404;49.902;10.074;2023-01-08T05:24:30;14.30;;;10.32;;
29430;SDS011;16404;49.902;10.074;2023-01-08T05:27:15;12.52;;;9.65;;
29430;SDS011;16404;49.902;10.074;2023-01-08T05:29:59;15.10;;;12.10;;
29430;SDS011;16404;49.902;10.074;2023-01-08T05:32:44;18.63;;;12.88;;
29430;SDS011;16404;49.902;10.074;2023-01-08T05:35:29;16.80;;;12.05;;
29430;SDS011;16404;49.902;10.074;2023-01-08T05:38:13;13.18;;;11.00;;
29430;SDS011;16404;49.902;10.074;2023-01-08T05:40:58;12.95;;;10.68;;
29430;SDS011;16404;49.902;10.074;2023-01-08T05:43:42;13.18;;;9.77;;
29430;SDS011;16404;49.902;10.074;2023-01-08T05:46:27;12.13;;;8.93;;
29430;SDS011;16404;49.902;10.074;2023-01-08T05:49:11;12.00;;;9.15;;
29430;SDS011;16404;49.902;10.074;2023-01-08T05:51:56;12.65;;;8.40;;
29430;SDS011;16404;49.902;10.074;2023-01-08T05:54:41;11.60;;;8.48;;
29430;SDS011;16404;49.902;10.074;2023-01-08T05:57:25;12.27;;;8.05;;
29430;SDS011;16404;49.902;10.074;2023-01-08T06:00:10;12.25;;;8.57;;
29430;SDS011;16404;49.902;10.074;2023-01-08T06:05:39;12.35;;;8.55;;
29430;SDS011;16404;49.902;10.074;2023-01-08T06:08:24;12.30;;;8.95;;
29430;SDS011;16404;49.902;10.074;2023-01-08T06:11:09;13.05;;;8.88;;
29430;SDS011;16404;49.902;10.074;2023-01-08T06:13:54;12.73;;;8.88;;
29430;SDS011;16404;49.902;10.074;2023-01-08T06:16:39;13.35;;;8.55;;
29430;SDS011;16404;49.902;10.074;2023-01-08T06:19:23;14.30;;;9.25;;
29430;SDS011;16404;49.902;10.074;2023-01-08T06:22:08;12.68;;;9.00;;
29430;SDS011;16404;49.902;10.074;2023-01-08T06:24:53;13.40;;;8.55;;
29430;SDS011;16404;49.902;10.074;2023-01-08T06:27:37;11.60;;;8.55;;
29430;SDS011;16404;49.902;10.074;2023-01-08T06:30:22;13.75;;;9.32;;
29430;SDS011;16404;49.902;10.074;2023-01-08T06:33:06;15.13;;;8.95;;
29430;SDS011;16404;49.902;10.074;2023-01-08T06:35:50;15.70;;;10.20;;
29430;SDS011;16404;49.902;10.074;2023-01-08T06:38:35;16.02;;;9.45;;
29430;SDS011;16404;49.902;10.074;2023-01-08T06:41:20;13.93;;;9.52;;
29430;SDS011;16404;49.902;10.074;2023-01-08T06:46:49;13.50;;;8.60;;
29430;SDS011;16404;49.902;10.074;2023-01-08T06:49:34;15.80;;;9.77;;
29430;SDS011;16404;49.902;10.074;2023-01-08T06:52:18;16.92;;;8.98;;
29430;SDS011;16404;49.902;10.074;2023-01-08T06:55:03;15.57;;;9.82;;
29430;SDS011;16404;49.902;10.074;2023-01-08T06:57:52;21.17;;;11.30;;
29430;SDS011;16404;49.902;10.074;2023-01-08T07:00:41;13.73;;;9.40;;
29430;SDS011;16404;49.902;10.074;2023-01-08T07:03:26;16.52;;;9.55;;
29430;SDS011;16404;49.902;10.074;2023-01-08T07:06:14;15.30;;;9.30;;
29430;SDS011;16404;49.902;10.074;2023-01-08T07:09:00;14.70;;;9.38;;
29430;SDS011;16404;49.902;10.074;2023-01-08T07:11:45;14.65;;;9.05;;
29430;SDS011;16404;49.902;10.074;2023-01-08T07:14:29;17.63;;;9.43;;
29430;SDS011;16404;49.902;10.074;2023-01-08T07:17:14;14.48;;;9.07;;
29430;SDS011;16404;49.902;10.074;2023-01-08T07:19:58;18.00;;;9.75;;
29430;SDS011;16404;49.902;10.074;2023-01-08T07:22:43;12.02;;;8.77;;
29430;SDS011;16404;49.902;10.074;2023-01-08T07:25:28;13.25;;;9.57;;
29430;SDS011;16404;49.902;10.074;2023-01-08T07:28:12;17.90;;;10.15;;
29430;SDS011;16404;49.902;10.074;2023-01-08T07:30:57;15.27;;;9.15;;
29430;SDS011;16404;49.902;10.074;2023-01-08T07:33:46;15.50;;;9.57;;
29430;SDS011;16404;49.902;10.074;2023-01-08T07:36:31;16.88;;;10.70;;
29430;SDS011;16404;49.902;10.074;2023-01-08T07:39:15;13.82;;;9.23;;
29430;SDS011;16404;49.902;10.074;2023-01-08T07:42:00;14.13;;;10.15;;
29430;SDS011;16404;49.902;10.074;2023-01-08T07:44:44;13.07;;;9.93;;
29430;SDS011;16404;49.902;10.074;2023-01-08T07:47:29;15.63;;;10.02;;
29430;SDS011;16404;49.902;10.074;2023-01-08T07:50:14;17.40;;;11.25;;
29430;SDS011;16404;49.902;10.074;2023-01-08T07:52:58;24.15;;;13.00;;
29430;SDS011;16404;49.902;10.074;2023-01-08T07:55:44;16.65;;;10.57;;
29430;SDS011;16404;49.902;10.074;2023-01-08T07:58:28;14.70;;;10.18;;
29430;SDS011;16404;49.902;10.074;2023-01-08T08:01:13;14.25;;;9.57;;
29430;SDS011;16404;49.902;10.074;2023-01-08T08:03:57;26.73;;;16.27;;
29430;SDS011;16404;49.902;10.074;2023-01-08T08:06:42;18.20;;;11.57;;
29430;SDS011;16404;49.902;10.074;2023-01-08T08:09:27;13.65;;;9.38;;
29430;SDS011;16404;49.902;10.074;2023-01-08T08:12:11;21.98;;;13.70;;
29430;SDS011;16404;49.902;10.074;2023-01-08T08:14:57;22.98;;;15.30;;
29430;SDS011;16404;49.902;10.074;2023-01-08T08:17:45;19.77;;;13.52;;
29430;SDS011;16404;49.902;10.074;2023-01-08T08:20:30;19.15;;;12.65;;
29430;SDS011;16404;49.902;10.074;2023-01-08T08:23:15;15.05;;;11.43;;
29430;SDS011;16404;49.902;10.074;2023-01-08T08:26:01;15.00;;;11.05;;
29430;SDS011;16404;49.902;10.074;2023-01-08T08:28:46;15.38;;;10.13;;
29430;SDS011;16404;49.902;10.074;2023-01-08T08:31:31;13.88;;;8.88;;
29430;SDS011;16404;49.902;10.074;2023-01-08T08:34:19;12.88;;;8.82;;
29430;SDS011;16404;49.902;10.074;2023-01-08T08:37:06;13.57;;;8.30;;
29430;SDS011;16404;49.902;10.074;2023-01-08T08:42:36;9.43;;;7.18;;
29430;SDS011;16404;49.902;10.074;2023-01-08T08:45:23;12.27;;;8.48;;
29430;SDS011;16404;49.902;10.074;2023-01-08T08:48:12;19.35;;;13.15;;
29430;SDS011;16404;49.902;10.074;2023-01-08T08:51:56;10.88;;;7.28;;
29430;SDS011;16404;49.902;10.074;2023-01-08T09:00:22;10.57;;;6.80;;
29430;SDS011;16404;49.902;10.074;2023-01-08T09:03:30;11.00;;;6.90;;
29430;SDS011;16404;49.902;10.074;2023-01-08T09:11:17;9.13;;;6.53;;
29430;SDS011;16404;49.902;10.074;2023-01-08T09:15:29;10.20;;;8.05;;
29430;SDS011;16404;49.902;10.074;2023-01-08T09:19:47;16.83;;;9.88;;
29430;SDS011;16404;49.902;10.074;2023-01-08T09:23:14;14.77;;;9.50;;
29430;SDS011;16404;49.902;10.074;2023-01-08T09:26:01;10.30;;;6.43;;
29430;SDS011;16404;49.902;10.074;2023-01-08T09:28:48;9.73;;;6.60;;
29430;SDS011;16404;49.902;10.074;2023-01-08T09:32:16;14.35;;;8.02;;
29430;SDS011;16404;49.902;10.074;2023-01-08T09:35:01;14.48;;;9.13;;
29430;SDS011;16404;49.902;10.074;2023-01-08T09:42:15;10.73;;;6.47;;
29430;SDS011;16404;49.902;10.074;2023-01-08T09:52:54;11.90;;;8.18;;
29430;SDS011;16404;49.902;10.074;2023-01-08T09:55:54;13.88;;;8.75;;
29430;SDS011;16404;49.902;10.074;2023-01-08T09:59:15;16.75;;;9.38;;
29430;SDS011;16404;49.902;10.074;2023-01-08T10:02:34;13.90;;;9.38;;
29430;SDS011;16404;49.902;10.074;2023-01-08T10:06:32;16.27;;;9.65;;
29430;SDS011;16404;49.902;10.074;2023-01-08T10:09:26;20.75;;;12.05;;
29430;SDS011;16404;49.902;10.074;2023-01-08T10:12:24;17.02;;;8.93;;
29430;SDS011;16404;49.902;10.074;2023-01-08T10:15:13;28.27;;;14.38;;
29430;SDS011;16404;49.902;10.074;2023-01-08T10:18:03;19.55;;;10.02;;
29430;SDS011;16404;49.902;10.074;2023-01-08T10:20:49;22.15;;;11.10;;
29430;SDS011;16404;49.902;10.074;2023-01-08T10:23:34;26.02;;;12.30;;
29430;SDS011;16404;49.902;10.074;2023-01-08T10:26:31;22.65;;;11.68;;
29430;SDS011;16404;49.902;10.074;2023-01-08T10:29:19;15.40;;;7.72;;
29430;SDS011;16404;49.902;10.074;2023-01-08T10:32:14;20.02;;;10.23;;
29430;SDS011;16404;49.902;10.074;2023-01-08T10:35:05;40.90;;;17.55;;
29430;SDS011;16404;49.902;10.074;2023-01-08T10:37:59;14.82;;;7.90;;
29430;SDS011;16404;49.902;10.074;2023-01-08T10:40:47;10.15;;;5.68;;
29430;SDS011;16404;49.902;10.074;2023-01-08T10:43:34;13.27;;;6.20;;
29430;SDS011;16404;49.902;10.074;2023-01-08T10:49:23;9.90;;;5.95;;
29430;SDS011;16404;49.902;10.074;2023-01-08T10:52:22;6.97;;;5.20;;
29430;SDS011;16404;49.902;10.074;2023-01-08T10:55:10;9.55;;;6.35;;
29430;SDS011;16404;49.902;10.074;2023-01-08T10:58:12;8.75;;;6.13;;
29430;SDS011;16404;49.902;10.074;2023-01-08T11:01:07;8.05;;;4.68;;
29430;SDS011;16404;49.902;10.074;2023-01-08T11:04:19;5.82;;;4.20;;
29430;SDS011;16404;49.902;10.074;2023-01-08T11:07:04;7.50;;;4.82;;
29430;SDS011;16404;49.902;10.074;2023-01-08T11:12:38;6.82;;;3.47;;
29430;SDS011;16404;49.902;10.074;2023-01-08T11:15:31;6.80;;;3.33;;
29430;SDS011;16404;49.902;10.074;2023-01-08T11:18:24;8.30;;;3.38;;
29430;SDS011;16404;49.902;10.074;2023-01-08T11:21:17;6.95;;;3.08;;
29430;SDS011;16404;49.902;10.074;2023-01-08T11:29:46;6.70;;;3.90;;
29430;SDS011;16404;49.902;10.074;2023-01-08T11:35:49;3.65;;;2.58;;
29430;SDS011;16404;49.902;10.074;2023-01-08T11:38:41;5.72;;;2.72;;
29430;SDS011;16404;49.902;10.074;2023-01-08T11:41:32;7.78;;;3.08;;
29430;SDS011;16404;49.902;10.074;2023-01-08T11:48:20;4.05;;;2.70;;
29430;SDS011;16404;49.902;10.074;2023-01-08T11:54:18;4.40;;;3.10;;
29430;SDS011;16404;49.902;10.074;2023-01-08T11:57:09;3.03;;;2.70;;
29430;SDS011;16404;49.902;10.074;2023-01-08T12:00:27;5.40;;;2.65;;
29430;SDS011;16404;49.902;10.074;2023-01-08T12:06:37;29.58;;;9.68;;
29430;SDS011;16404;49.902;10.074;2023-01-08T12:09:37;13.88;;;5.82;;
29430;SDS011;16404;49.902;10.074;2023-01-08T12:12:36;29.27;;;11.57;;
29430;SDS011;16404;49.902;10.074;2023-01-08T12:28:47;5.93;;;3.53;;
29430;SDS011;16404;49.902;10.074;2023-01-08T12:43:30;6.22;;;4.07;;
29430;SDS011;16404;49.902;10.074;2023-01-08T12:46:21;6.30;;;3.07;;
29430;SDS011;16404;49.902;10.074;2023-01-08T12:49:08;4.30;;;2.03;;
29430;SDS011;16404;49.902;10.074;2023-01-08T12:52:09;4.03;;;2.90;;
29430;SDS011;16404;49.902;10.074;2023-01-08T12:55:25;10.18;;;3.60;;
29430;SDS011;16404;49.902;10.074;2023-01-08T13:04:41;8.23;;;3.10;;
29430;SDS011;16404;49.902;10.074;2023-01-08T13:07:29;4.97;;;3.00;;
29430;SDS011;16404;49.902;10.074;2023-01-08T13:13:35;14.43;;;7.00;;
29430;SDS011;16404;49.902;10.074;2023-01-08T13:16:24;6.55;;;3.60;;
29430;SDS011;16404;49.902;10.074;2023-01-08T13:19:22;11.60;;;6.20;;
29430;SDS011;16404;49.902;10.074;2023-01-08T13:22:20;2.97;;;2.28;;
29430;SDS011;16404;49.902;10.074;2023-01-08T13:28:16;2.25;;;1.80;;
29430;SDS011;16404;49.902;10.074;2023-01-08T13:34:21;4.35;;;2.03;;
29430;SDS011;16404;49.902;10.074;2023-01-08T13:37:23;2.80;;;1.63;;
29430;SDS011;16404;49.902;10.074;2023-01-08T13:43:29;3.38;;;2.28;;
29430;SDS011;16404;49.902;10.074;2023-01-08T13:46:19;2.55;;;1.92;;
29430;SDS011;16404;49.902;10.074;2023-01-08T13:49:04;3.30;;;2.90;;
29430;SDS011;16404;49.902;10.074;2023-01-08T13:51:50;2.20;;;1.80;;
29430;SDS011;16404;49.902;10.074;2023-01-08T13:54:38;4.40;;;1.85;;
29430;SDS011;16404;49.902;10.074;2023-01-08T13:57:26;3.58;;;2.55;;
29430;SDS011;16404;49.902;10.074;2023-01-08T14:00:25;4.40;;;2.22;;
29430;SDS011;16404;49.902;10.074;2023-01-08T14:03:25;4.60;;;1.80;;
29430;SDS011;16404;49.902;10.074;2023-01-08T14:06:18;2.65;;;1.80;;
29430;SDS011;16404;49.902;10.074;2023-01-08T14:09:05;2.63;;;1.90;;
29430;SDS011;16404;49.902;10.074;2023-01-08T14:12:00;3.42;;;2.20;;
29430;SDS011;16404;49.902;10.074;2023-01-08T14:14:50;3.95;;;2.30;;
29430;SDS011;16404;49.902;10.074;2023-01-08T14:17:41;2.25;;;2.05;;
29430;SDS011;16404;49.902;10.074;2023-01-08T14:20:37;2.97;;;2.28;;
29430;SDS011;16404;49.902;10.074;2023-01-08T14:23:28;2.38;;;2.17;;
29430;SDS011;16404;49.902;10.074;2023-01-08T14:26:22;5.68;;;3.50;;
29430;SDS011;16404;49.902;10.074;2023-01-08T14:29:25;4.28;;;2.75;;
29430;SDS011;16404;49.902;10.074;2023-01-08T14:32:18;4.07;;;2.90;;
29430;SDS011;16404;49.902;10.074;2023-01-08T14:35:05;4.85;;;3.10;;
29430;SDS011;16404;49.902;10.074;2023-01-08T14:37:52;4.85;;;2.90;;
29430;SDS011;16404;49.902;10.074;2023-01-08T14:40:40;4.13;;;2.97;;
29430;SDS011;16404;49.902;10.074;2023-01-08T14:43:37;5.63;;;3.35;;
29430;SDS011;16404;49.902;10.074;2023-01-08T14:46:27;3.60;;;3.22;;
29430;SDS011;16404;49.902;10.074;2023-01-08T14:54:55;7.32;;;3.60;;
29430;SDS011;16404;49.902;10.074;2023-01-08T14:57:43;10.02;;;3.42;;
29430;SDS011;16404;49.902;10.074;2023-01-08T15:00:30;4.93;;;3.42;;
29430;SDS011;16404;49.902;10.074;2023-01-08T15:03:48;4.35;;;3.33;;
29430;SDS011;16404;49.902;10.074;2023-01-08T15:06:28;5.15;;;3.80;;
29430;SDS011;16404;49.902;10.074;2023-01-08T15:09:26;5.47;;;3.40;;
29430;SDS011;16404;49.902;10.074;2023-01-08T15:12:24;6.03;;;3.45;;
29430;SDS011;16404;49.902;10.074;2023-01-08T15:15:10;5.30;;;3.30;;
29430;SDS011;16404;49.902;10.074;2023-01-08T15:18:05;6.47;;;3.47;;
29430;SDS011;16404;49.902;10.074;2023-01-08T15:20:51;6.75;;;3.30;;
29430;SDS011;16404;49.902;10.074;2023-01-08T15:23:38;6.68;;;4.00;;
29430;SDS011;16404;49.902;10.074;2023-01-08T15:26:24;5.82;;;3.92;;
29430;SDS011;16404;49.902;10.074;2023-01-08T15:29:15;8.23;;;5.10;;
29430;SDS011;16404;49.902;10.074;2023-01-08T15:34:59;10.38;;;5.18;;
29430;SDS011;16404;49.902;10.074;2023-01-08T15:40:28;9.60;;;4.90;;
29430;SDS011;16404;49.902;10.074;2023-01-08T15:43:14;7.28;;;4.70;;
29430;SDS011;16404;49.902;10.074;2023-01-08T15:46:00;7.22;;;4.40;;
29430;SDS011;16404;49.902;10.074;2023-01-08T15:48:47;10.00;;;5.57;;
29430;SDS011;16404;49.902;10.074;2023-01-08T15:51:32;13.05;;;6.15;;
29430;SDS011;16404;49.902;10.074;2023-01-08T15:54:20;8.43;;;5.32;;
29430;SDS011;16404;49.902;10.074;2023-01-08T15:57:08;9.63;;;5.68;;
29430;SDS011;16404;49.902;10.074;2023-01-08T15:59:55;9.40;;;5.47;;
29430;SDS011;16404;49.902;10.074;2023-01-08T16:02:48;7.72;;;4.93;;
29430;SDS011;16404;49.902;10.074;2023-01-08T16:05:34;8.05;;;4.70;;
29430;SDS011;16404;49.902;10.074;2023-01-08T16:08:19;7.55;;;5.07;;
29430;SDS011;16404;49.902;10.074;2023-01-08T16:11:05;11.18;;;6.97;;
29430;SDS011;16404;49.902;10.074;2023-01-08T16:13:50;10.98;;;7.15;;
29430;SDS011;16404;49.902;10.074;2023-01-08T16:16:34;6.32;;;4.97;;
29430;SDS011;16404;49.902;10.074;2023-01-08T16:19:22;6.78;;;4.63;;
29430;SDS011;16404;49.902;10.074;2023-01-08T16:22:09;7.28;;;4.65;;
29430;SDS011;16404;49.902;10.074;2023-01-08T16:24:54;5.43;;;3.90;;
29430;SDS011;16404;49.902;10.074;2023-01-08T16:27:38;6.32;;;3.75;;
29430;SDS011;16404;49.902;10.074;2023-01-08T16:30:24;4.28;;;3.45;;
29430;SDS011;16404;49.902;10.074;2023-01-08T16:33:08;5.20;;;3.50;;
29430;SDS011;16404;49.902;10.074;2023-01-08T16:35:57;6.18;;;4.45;;
29430;SDS011;16404;49.902;10.074;2023-01-08T16:38:42;7.45;;;5.40;;
29430;SDS011;16404;49.902;10.074;2023-01-08T16:41:30;7.90;;;5.53;;
29430;SDS011;16404;49.902;10.074;2023-01-08T16:44:19;24.30;;;13.85;;
29430;SDS011;16404;49.902;10.074;2023-01-08T16:47:04;44.13;;;20.83;;
29430;SDS011;16404;49.902;10.074;2023-01-08T16:52:40;33.42;;;18.42;;
29430;SDS011;16404;49.902;10.074;2023-01-08T16:55:24;27.13;;;14.93;;
29430;SDS011;16404;49.902;10.074;2023-01-08T16:58:09;23.60;;;13.98;;
29430;SDS011;16404;49.902;10.074;2023-01-08T17:00:54;14.65;;;9.15;;
29430;SDS011;16404;49.902;10.074;2023-01-08T17:06:23;13.85;;;7.63;;
29430;SDS011;16404;49.902;10.074;2023-01-08T17:09:08;21.63;;;11.07;;
29430;SDS011;16404;49.902;10.074;2023-01-08T17:11:52;24.13;;;11.00;;
29430;SDS011;16404;49.902;10.074;2023-01-08T17:14:37;23.67;;;11.50;;
29430;SDS011;16404;49.902;10.074;2023-01-08T17:17:22;13.88;;;6.70;;
29430;SDS011;16404;49.902;10.074;2023-01-08T17:20:07;11.35;;;6.40;;
29430;SDS011;16404;49.902;10.074;2023-01-08T17:22:52;18.05;;;8.35;;
29430;SDS011;16404;49.902;10.074;2023-01-08T17:25:39;15.90;;;8.02;;
29430;SDS011;16404;49.902;10.074;2023-01-08T17:28:24;16.73;;;8.88;;
29430;SDS011;16404;49.902;10.074;2023-01-08T17:31:15;20.02;;;9.27;;
29430;SDS011;16404;49.902;10.074;2023-01-08T17:34:00;24.80;;;12.23;;
29430;SDS011;16404;49.902;10.074;2023-01-08T17:36:45;29.90;;;14.02;;
29430;SDS011;16404;49.902;10.074;2023-01-08T17:39:30;31.20;;;12.70;;
29430;SDS011;16404;49.902;10.074;2023-01-08T17:42:14;23.88;;;10.85;;
29430;SDS011;16404;49.902;10.074;2023-01-08T17:45:08;28.45;;;13.52;;
29430;SDS011;16404;49.902;10.074;2023-01-08T17:47:53;20.48;;;10.43;;
29430;SDS011;16404;49.902;10.074;2023-01-08T17:50:38;17.23;;;9.35;;
29430;SDS011;16404;49.902;10.074;2023-01-08T17:56:07;11.15;;;7.15;;
29430;SDS011;16404;49.902;10.074;2023-01-08T17:58:51;16.67;;;8.60;;
29430;SDS011;16404;49.902;10.074;2023-01-08T18:01:36;15.68;;;7.82;;
29430;SDS011;16404;49.902;10.074;2023-01-08T18:04:21;14.27;;;6.78;;
29430;SDS011;16404;49.902;10.074;2023-01-08T18:07:05;12.15;;;6.47;;
29430;SDS011;16404;49.902;10.074;2023-01-08T18:09:50;12.80;;;6.82;;
29430;SDS011;16404;49.902;10.074;2023-01-08T18:12:36;10.30;;;6.13;;
29430;SDS011;16404;49.902;10.074;2023-01-08T18:15:21;8.48;;;4.68;;
29430;SDS011;16404;49.902;10.074;2023-01-08T18:18:05;7.43;;;4.25;;
29430;SDS011;16404;49.902;10.074;2023-01-08T18:20:53;7.55;;;4.28;;
29430;SDS011;16404;49.902;10.074;2023-01-08T18:26:26;3.25;;;2.63;;
29430;SDS011;16404;49.902;10.074;2023-01-08T18:29:13;3.58;;;2.78;;
29430;SDS011;16404;49.902;10.074;2023-01-08T18:31:57;2.80;;;2.35;;
29430;SDS011;16404;49.902;10.074;2023-01-08T18:34:42;4.32;;;2.60;;
29430;SDS011;16404;49.902;10.074;2023-01-08T18:37:26;2.92;;;2.40;;
29430;SDS011;16404;49.902;10.074;2023-01-08T18:40:11;3.60;;;3.05;;